Time;durP1;ratioP1;P1;durP2;ratioP2;P2;SDS_P1;SDS_P2;PMS_P1;PMS_P2;Temp;Humidity;BMP_temperature;BMP_pressure;BME280_temperature;BME280_humidity;BME280_pressure;Samples;Min_cycle;Max_cycle;Signal;HPM_P1;HPM_P2
2022/06/09 00:00:45;;;;;;;18.75;11.95;;;;;;;24.10;73.68;100383.97;1725189;81;21044;-71
2022/06/09 00:03:26;;;;;;;19.32;11.65;;;;;;;24.03;73.66;100387.38;1735030;81;21646;-70
2022/06/09 00:05:54;;;;;;;19.98;12.53;;;;;;;23.89;73.97;100382.25;1723806;82;21130;-71
2022/06/09 00:08:21;;;;;;;19.02;12.33;;;;;;;23.81;74.45;100384.34;1717791;82;21059;-71
2022/06/09 00:10:55;;;;;;;21.60;13.72;;;;;;;23.72;75.37;100380.83;1707336;82;21160;-71
2022/06/09 00:13:24;;;;;;;22.10;13.48;;;;;;;23.86;74.78;100379.92;1707351;81;21024;-71
2022/06/09 00:15:51;;;;;;;22.00;13.48;;;;;;;23.69;75.20;100381.62;1702985;83;21012;-71
2022/06/09 00:18:18;;;;;;;29.63;14.20;;;;;;;23.76;74.85;100381.31;1712981;84;21016;-71
2022/06/09 00:20:45;;;;;;;23.02;14.07;;;;;;;23.79;74.47;100383.67;1707479;83;21067;-71
2022/06/09 00:23:15;;;;;;;24.18;14.30;;;;;;;23.82;74.28;100383.84;1705779;84;21122;-71
2022/06/09 00:25:41;;;;;;;28.42;14.13;;;;;;;23.92;73.80;100395.06;1705786;84;21045;-71
2022/06/09 00:28:10;;;;;;;20.70;14.28;;;;;;;23.95;73.46;100396.90;1705559;83;21028;-71
2022/06/09 00:30:37;;;;;;;20.65;13.00;;;;;;;24.01;73.68;100402.02;1705753;84;21044;-71
2022/06/09 00:33:05;;;;;;;25.00;14.33;;;;;;;24.13;73.33;100403.39;1705453;83;21068;-71
2022/06/09 00:35:32;;;;;;;21.00;13.70;;;;;;;24.10;73.02;100401.06;1705885;84;21051;-71
2022/06/09 00:38:02;;;;;;;21.02;13.53;;;;;;;23.99;73.22;100403.48;1705447;84;21556;-71
2022/06/09 00:40:29;;;;;;;22.00;13.65;;;;;;;24.03;73.64;100402.69;1705355;84;21040;-72
2022/06/09 00:42:59;;;;;;;21.70;14.43;;;;;;;24.04;73.75;100404.32;1730470;81;21004;-70
2022/06/09 00:45:39;;;;;;;20.35;13.75;;;;;;;23.94;73.65;100405.75;1707747;84;21075;-71
2022/06/09 00:48:26;;;;;;;21.85;14.65;;;;;;;23.97;73.71;100400.19;1706433;83;21082;-71
2022/06/09 00:51:02;;;;;;;24.57;14.68;;;;;;;23.86;73.78;100399.14;1707007;83;21228;-71
2022/06/09 00:53:34;;;;;;;25.45;14.30;;;;;;;24.18;73.22;100398.45;1732649;81;21039;-71
2022/06/09 00:56:03;;;;;;;21.77;13.25;;;;;;;24.14;72.92;100400.25;1715600;81;21567;-71
2022/06/09 00:58:35;;;;;;;22.85;13.65;;;;;;;24.05;73.00;100399.87;1708905;83;21044;-71
2022/06/09 01:01:10;;;;;;;22.90;12.98;;;;;;;24.01;73.05;100402.02;1729702;82;21369;-71
2022/06/09 01:03:43;;;;;;;20.35;12.93;;;;;;;23.91;73.60;100399.50;1720339;81;21044;-72
2022/06/09 01:06:14;;;;;;;;;;;;;;;23.71;74.68;100400.69;1705342;84;21063;-71
2022/06/09 01:08:54;;;;;;;23.77;13.35;;;;;;;23.69;75.00;100400.84;1702848;84;20114;-71
2022/06/09 01:11:22;;;;;;;21.33;13.30;;;;;;;23.78;74.73;100401.26;1705266;83;21080;-70
2022/06/09 01:13:50;;;;;;;24.23;12.90;;;;;;;23.73;74.48;100402.17;1717559;82;21155;-71
2022/06/09 01:16:33;;;;;;;23.62;13.65;;;;;;;23.58;75.63;100401.08;1713441;82;21048;-71
2022/06/09 01:19:27;;;;;;;23.75;15.00;;;;;;;23.55;75.97;100398.78;1707292;83;22333;-70
2022/06/09 01:22:02;;;;;;;24.43;14.28;;;;;;;23.42;76.21;100389.16;1701626;84;21107;-71
2022/06/09 01:24:53;;;;;;;22.95;14.28;;;;;;;23.51;75.57;100394.81;1727767;81;21547;-71
2022/06/09 01:27:52;;;;;;;21.75;13.40;;;;;;;23.74;75.23;100388.53;1715622;81;21067;-71
2022/06/09 01:30:33;;;;;;;25.57;14.55;;;;;;;23.69;74.48;100390.32;1717040;81;21529;-71
2022/06/09 01:33:11;;;;;;;23.15;14.68;;;;;;;23.52;75.07;100389.41;1702307;84;21024;-72
2022/06/09 01:36:14;;;;;;;24.35;14.60;;;;;;;23.38;75.44;100385.54;1732833;81;21049;-72
2022/06/09 01:38:52;;;;;;;27.55;15.53;;;;;;;23.24;76.07;100389.22;1710859;81;21032;-72
2022/06/09 01:41:22;;;;;;;29.52;16.20;;;;;;;23.26;75.93;100382.02;1703315;84;21485;-71
2022/06/09 01:43:52;;;;;;;29.52;16.48;;;;;;;23.18;76.05;100386.71;1738175;82;21032;-71
2022/06/09 01:46:33;;;;;;;23.83;16.32;;;;;;;23.31;75.72;100381.87;1709165;82;21000;-71
2022/06/09 01:49:17;;;;;;;25.20;16.70;;;;;;;23.10;76.31;100379.59;1706588;83;21023;-70
2022/06/09 01:51:49;;;;;;;28.77;17.23;;;;;;;23.18;76.29;100386.22;1703430;83;20993;-71
2022/06/09 01:54:23;;;;;;;25.65;16.60;;;;;;;23.24;76.41;100382.66;1703433;84;21052;-69
2022/06/09 01:57:14;;;;;;;28.87;17.42;;;;;;;23.51;75.17;100381.18;1703107;83;21048;-70
2022/06/09 01:59:46;;;;;;;31.20;16.30;;;;;;;23.48;74.49;100376.72;1674657;84;21048;-70
2022/06/09 02:02:32;;;;;;;30.27;16.85;;;;;;;23.44;75.11;100383.26;1732672;81;21126;-70
2022/06/09 02:05:08;;;;;;;28.12;17.07;;;;;;;23.67;74.04;100383.09;1725736;81;21069;-70
2022/06/09 02:07:38;;;;;;;29.32;16.30;;;;;;;23.66;73.71;100384.08;1735901;81;21052;-70
2022/06/09 02:10:32;;;;;;;25.08;16.05;;;;;;;23.62;74.73;100382.71;1717063;82;21554;-70
2022/06/09 02:13:07;;;;;;;26.65;16.75;;;;;;;23.59;74.39;100385.17;1718297;81;21078;-70
2022/06/09 02:15:41;;;;;;;29.00;16.40;;;;;;;23.61;74.65;100396.84;1718126;81;21511;-70
2022/06/09 02:18:14;;;;;;;25.88;16.07;;;;;;;23.62;75.60;100392.41;1704144;84;21545;-70
2022/06/09 02:20:58;;;;;;;28.55;17.17;;;;;;;23.69;75.37;100387.69;1710721;84;21028;-70
2022/06/09 02:23:25;;;;;;;29.82;17.40;;;;;;;23.73;75.22;100392.97;1710895;84;21035;-70
2022/06/09 02:25:53;;;;;;;29.05;17.10;;;;;;;23.86;75.04;100391.75;1710268;84;21040;-70
2022/06/09 02:28:21;;;;;;;25.60;16.62;;;;;;;23.78;75.46;100397.31;1709838;84;21527;-70
2022/06/09 02:30:49;;;;;;;28.30;15.88;;;;;;;23.86;74.68;100393.06;1709424;83;21107;-70
2022/06/09 02:33:17;;;;;;;28.42;17.00;;;;;;;23.83;73.87;100393.39;1711658;83;21067;-69
2022/06/09 02:35:45;;;;;;;27.95;16.57;;;;;;;23.65;73.74;100394.73;1702658;83;21036;-70
2022/06/09 02:38:12;;;;;;;27.10;15.68;;;;;;;23.59;74.89;100398.80;1705735;84;21028;-70
2022/06/09 02:40:41;;;;;;;29.27;16.17;;;;;;;23.71;74.42;100400.19;1706519;84;21080;-70
2022/06/09 02:43:08;;;;;;;28.50;16.27;;;;;;;23.87;74.41;100403.43;1705456;84;21001;-69
2022/06/09 02:45:36;;;;;;;23.77;16.32;;;;;;;23.88;74.78;100400.30;1705464;83;21133;-70
2022/06/09 02:48:04;;;;;;;28.35;15.80;;;;;;;23.94;74.91;100403.12;1704592;83;21012;-70
2022/06/09 02:50:33;;;;;;;23.57;15.98;;;;;;;23.90;75.38;100400.97;1705718;84;21520;-69
2022/06/09 02:53:01;;;;;;;28.85;15.00;;;;;;;23.97;75.39;100396.75;1703219;84;21065;-70
2022/06/09 02:55:28;;;;;;;25.08;15.88;;;;;;;24.18;75.02;100399.77;1705712;84;21028;-70
2022/06/09 02:57:56;;;;;;;29.25;16.95;;;;;;;24.20;73.87;100403.06;1705784;84;21028;-70
2022/06/09 03:00:23;;;;;;;26.02;16.25;;;;;;;24.29;73.49;100401.78;1688673;83;21068;-69
2022/06/09 03:02:58;;;;;;;25.65;16.62;;;;;;;24.44;72.76;100404.64;1708072;83;21036;-70
2022/06/09 03:05:27;;;;;;;25.43;16.48;;;;;;;24.50;72.62;100414.05;1705694;83;21052;-70
2022/06/09 03:07:55;;;;;;;26.52;16.10;;;;;;;24.46;73.03;100408.75;1728470;81;21028;-70
2022/06/09 03:10:23;;;;;;;26.02;16.57;;;;;;;24.61;72.43;100412.10;1736644;81;21077;-70
2022/06/09 03:12:53;;;;;;;29.20;17.05;;;;;;;24.62;73.06;100415.89;1719830;80;21593;-70
2022/06/09 03:15:23;;;;;;;27.62;16.93;;;;;;;24.62;73.36;100406.68;1708187;82;21084;-70
2022/06/09 03:17:52;;;;;;;27.70;17.30;;;;;;;24.70;72.25;100409.83;1720915;81;21123;-69
2022/06/09 03:20:27;;;;;;;25.97;16.15;;;;;;;25.02;72.04;100412.14;1735245;81;21067;-69
2022/06/09 03:22:55;;;;;;;27.70;17.35;;;;;;;25.29;71.07;100405.27;1715136;82;21546;-70
2022/06/09 03:25:22;;;;;;;27.62;15.90;;;;;;;25.48;70.14;100405.39;1718166;81;21539;-71
2022/06/09 03:27:51;;;;;;;29.80;16.90;;;;;;;25.74;69.05;100402.53;1702912;83;21123;-70
2022/06/09 03:30:19;;;;;;;31.27;16.93;;;;;;;26.03;68.40;100401.14;1703528;83;21004;-71
2022/06/09 03:32:46;;;;;;;26.73;17.37;;;;;;;26.30;67.86;100396.44;1721549;82;21016;-69
2022/06/09 03:35:13;;;;;;;25.62;16.48;;;;;;;26.44;67.15;100397.48;1710909;82;21063;-70
2022/06/09 03:37:41;;;;;;;28.17;16.85;;;;;;;26.63;67.41;100395.76;1729936;81;21071;-69
2022/06/09 03:40:12;;;;;;;26.23;16.48;;;;;;;26.61;67.74;100390.34;1728808;81;21016;-70
2022/06/09 03:42:39;;;;;;;29.55;17.10;;;;;;;26.70;67.31;100386.63;1721243;81;21072;-70
2022/06/09 03:45:10;;;;;;;26.57;16.35;;;;;;;26.75;68.06;100387.75;1711189;84;21503;-70
2022/06/09 03:47:38;;;;;;;27.05;16.55;;;;;;;26.77;68.10;100387.58;1705655;84;21051;-70
2022/06/09 03:50:08;;;;;;;24.75;15.90;;;;;;;27.02;68.01;100391.34;1705804;83;21004;-70
2022/06/09 03:52:35;;;;;;;29.92;18.67;;;;;;;27.08;67.87;100396.73;1705761;83;21040;-70
2022/06/09 03:55:04;;;;;;;30.92;19.82;;;;;;;27.15;67.75;100392.89;1708297;83;21000;-70
2022/06/09 03:57:31;;;;;;;32.53;21.00;;;;;;;27.22;68.56;100391.16;1705998;84;21087;-70
2022/06/09 03:59:58;;;;;;;30.27;21.05;;;;;;;27.27;68.33;100387.53;1711334;83;21535;-70
2022/06/09 04:02:25;;;;;;;30.15;19.65;;;;;;;27.47;67.45;100388.30;1710512;83;21020;-70
2022/06/09 04:04:53;;;;;;;32.30;19.75;;;;;;;27.84;66.37;100387.41;1701145;84;21008;-70
2022/06/09 04:07:20;;;;;;;31.73;19.60;;;;;;;28.17;65.93;100385.70;1705676;84;21012;-70
2022/06/09 04:09:48;;;;;;;26.80;18.40;;;;;;;28.46;65.80;100391.41;1705399;83;21064;-70
2022/06/09 04:12:16;;;;;;;27.80;17.95;;;;;;;28.75;64.77;100391.84;1705624;84;21036;-70
2022/06/09 04:14:44;;;;;;;29.60;17.65;;;;;;;28.87;64.78;100388.67;1705649;84;21071;-70
2022/06/09 04:17:12;;;;;;;26.80;17.32;;;;;;;28.85;64.58;100392.02;1705539;83;21580;-70
2022/06/09 04:19:41;;;;;;;26.35;17.32;;;;;;;29.03;64.72;100388.40;1705701;84;21024;-70
2022/06/09 04:22:08;;;;;;;29.00;17.15;;;;;;;29.04;64.62;100386.08;1705772;84;21016;-70
2022/06/09 04:24:35;;;;;;;29.00;17.75;;;;;;;29.10;64.87;100385.82;1705636;83;20980;-70
2022/06/09 04:27:03;;;;;;;27.75;16.80;;;;;;;29.20;65.50;100390.31;1705754;84;21028;-70
2022/06/09 04:29:31;;;;;;;23.00;15.88;;;;;;;29.31;65.23;100384.46;1705398;84;21091;-70
2022/06/09 04:31:58;;;;;;;27.80;16.02;;;;;;;29.60;65.06;100387.90;1705630;84;21024;-70
2022/06/09 04:34:26;;;;;;;25.30;16.60;;;;;;;29.63;65.21;100388.03;1705371;84;21083;-70
2022/06/09 04:36:54;;;;;;;23.35;16.15;;;;;;;29.62;65.23;100384.54;1705616;84;21064;-70
2022/06/09 04:39:22;;;;;;;31.05;17.05;;;;;;;29.76;66.00;100393.42;1705479;83;21536;-70
2022/06/09 04:41:49;;;;;;;24.27;16.02;;;;;;;29.92;65.19;100389.63;1705635;84;21468;-70
2022/06/09 04:44:16;;;;;;;28.87;16.75;;;;;;;30.14;64.96;100387.16;1705564;84;21544;-71
2022/06/09 04:46:43;;;;;;;26.93;15.83;;;;;;;30.24;63.30;100392.09;1705606;84;21087;-71
2022/06/09 04:49:10;;;;;;;22.62;15.00;;;;;;;30.42;61.65;100394.22;1705637;84;21107;-70
2022/06/09 04:51:37;;;;;;;23.15;15.15;;;;;;;30.51;56.73;100398.31;1705586;84;21032;-71
2022/06/09 04:54:07;;;;;;;27.32;15.53;;;;;;;30.63;54.88;100392.42;1703061;83;21484;-71
2022/06/09 04:56:36;;;;;;;26.00;15.83;;;;;;;30.57;56.22;100390.57;1705562;84;21115;-71
2022/06/09 04:59:04;;;;;;;24.52;15.48;;;;;;;30.70;56.32;100395.92;1705692;83;21084;-71
2022/06/09 05:01:32;;;;;;;24.77;15.58;;;;;;;30.95;54.49;100398.81;1705686;84;21481;-71
2022/06/09 05:04:01;;;;;;;26.37;16.40;;;;;;;31.00;55.45;100398.19;1709662;84;21076;-71
2022/06/09 05:06:29;;;;;;;29.07;16.57;;;;;;;30.94;55.09;100413.11;1708790;84;21023;-71
2022/06/09 05:08:57;;;;;;;23.65;16.00;;;;;;;31.07;55.36;100410.47;1710499;84;21551;-70
2022/06/09 05:11:26;;;;;;;29.85;17.42;;;;;;;30.67;54.97;100409.07;1710485;84;21068;-70
2022/06/09 05:13:55;;;;;;;27.93;16.15;;;;;;;31.00;54.06;100415.47;1688684;84;21017;-71
2022/06/09 05:16:22;;;;;;;22.67;15.63;;;;;;;31.01;54.25;100405.97;1710843;82;21012;-71
2022/06/09 05:18:49;;;;;;;23.47;16.10;;;;;;;31.13;54.60;100410.16;1674563;85;21089;-71
2022/06/09 05:21:16;;;;;;;26.73;16.37;;;;;;;31.22;53.57;100416.08;1658160;84;21049;-71
2022/06/09 05:23:43;;;;;;;22.58;15.13;;;;;;;31.52;52.92;100414.63;1647207;85;21059;-71
2022/06/09 05:26:10;;;;;;;21.70;14.80;;;;;;;31.45;53.12;100412.52;1672403;84;21034;-71
2022/06/09 05:28:38;;;;;;;26.07;16.48;;;;;;;31.55;52.08;100417.41;1673100;84;21037;-71
2022/06/09 05:31:05;;;;;;;25.12;13.95;;;;;;;31.47;51.72;100418.45;1667018;84;21006;-71
2022/06/09 05:33:32;;;;;;;25.50;16.55;;;;;;;31.69;51.75;100416.35;1670924;83;21092;-71
2022/06/09 05:36:01;;;;;;;24.32;15.50;;;;;;;31.69;51.26;100418.17;1669986;83;21057;-71
2022/06/09 05:46:48;;;;;;;24.20;15.70;;;;;;;31.88;50.68;100420.48;1668150;84;21470;-71
2022/06/09 05:49:17;;;;;;;23.47;15.30;;;;;;;32.03;50.32;100417.59;1678242;85;21022;-72
2022/06/09 05:51:52;;;;;;;23.05;15.88;;;;;;;32.03;49.96;100421.06;1675541;83;21049;-71
2022/06/09 05:54:16;;;;;;;30.43;15.38;;;;;;;32.18;50.58;100421.30;1668649;84;21086;-72
2022/06/09 05:56:43;;;;;;;24.52;15.75;;;;;;;32.36;50.16;100424.59;1654317;84;21161;-71
2022/06/09 05:59:10;;;;;;;23.12;16.15;;;;;;;32.50;48.86;100422.16;1676274;84;21018;-69
2022/06/09 06:01:38;;;;;;;24.35;15.23;;;;;;;32.21;48.95;100423.03;1655437;85;21373;-70
2022/06/09 06:09:28;;;;;;;24.05;14.85;;;;;;;32.08;51.28;100421.78;1773831;80;21142;-70
2022/06/09 06:11:57;;;;;;;27.27;16.00;;;;;;;32.07;51.85;100425.45;1768631;80;20992;-70
2022/06/09 06:14:24;;;;;;;24.55;15.25;;;;;;;32.10;50.49;100421.05;1776986;80;21008;-70
2022/06/09 06:16:51;;;;;;;23.30;15.15;;;;;;;32.32;50.15;100410.39;1770095;80;21012;-70
2022/06/09 06:19:22;;;;;;;22.10;14.75;;;;;;;32.32;50.15;100410.39;1768799;80;21079;-70
2022/06/09 06:21:50;;;;;;;25.20;14.60;;;;;;;32.26;49.28;100423.23;1760649;80;21016;-70
2022/06/09 06:24:20;;;;;;;24.05;14.18;;;;;;;32.37;51.13;100416.41;1748379;80;21578;-71
2022/06/09 06:26:48;;;;;;;24.35;14.40;;;;;;;32.39;50.46;100416.20;1739866;81;21071;-70
2022/06/09 06:29:22;;;;;;;24.23;14.23;;;;;;;32.34;49.91;100418.98;1754267;80;21049;-70
2022/06/09 06:31:50;;;;;;;22.35;14.13;;;;;;;32.47;49.06;100418.08;1751846;80;21649;-70
2022/06/09 06:34:18;;;;;;;23.57;13.60;;;;;;;32.74;49.04;100416.08;1746183;81;21472;-69
2022/06/09 06:36:45;;;;;;;20.45;13.40;;;;;;;33.00;48.49;100421.44;1736819;82;21027;-70
2022/06/09 06:39:12;;;;;;;19.65;11.90;;;;;;;32.85;48.12;100417.77;1752710;81;21050;-70
2022/06/09 06:41:40;;;;;;;23.00;13.10;;;;;;;32.87;47.85;100421.04;1745739;81;21506;-70
2022/06/09 06:44:07;;;;;;;20.20;12.65;;;;;;;32.67;47.37;100419.84;1723012;81;21530;-71
2022/06/09 06:46:34;;;;;;;20.97;13.50;;;;;;;32.99;48.00;100423.80;1734863;81;21145;-70
2022/06/09 06:49:01;;;;;;;20.97;12.78;;;;;;;32.92;48.56;100427.86;1736590;82;21039;-71
2022/06/09 06:51:29;;;;;;;23.52;12.90;;;;;;;33.26;47.62;100432.43;1726193;81;21033;-71
2022/06/09 06:53:56;;;;;;;23.92;13.13;;;;;;;33.50;47.50;100429.43;1727136;82;21071;-70
2022/06/09 06:56:23;;;;;;;22.00;13.30;;;;;;;33.65;46.63;100427.76;1730561;82;21090;-71
2022/06/09 06:58:50;;;;;;;23.42;12.53;;;;;;;33.41;44.98;100427.55;1726842;81;21149;-71
2022/06/09 07:01:18;;;;;;;19.48;12.23;;;;;;;33.44;44.16;100428.98;1728031;81;21008;-70
2022/06/09 07:03:45;;;;;;;17.77;12.53;;;;;;;33.39;45.20;100423.48;1735940;81;21263;-71
2022/06/09 07:06:12;;;;;;;19.52;12.65;;;;;;;33.87;46.11;100429.47;1715074;82;21171;-71
2022/06/09 07:08:40;;;;;;;20.27;11.35;;;;;;;34.08;46.46;100423.63;1714209;82;21004;-71
2022/06/09 07:11:08;;;;;;;16.30;10.70;;;;;;;34.00;44.66;100424.47;1715996;82;21028;-71
2022/06/09 07:13:36;;;;;;;14.53;10.30;;;;;;;34.17;44.82;100424.19;1714218;83;21064;-71
2022/06/09 07:16:07;;;;;;;14.23;9.03;;;;;;;34.14;44.73;100425.97;1715775;82;21504;-71
2022/06/09 07:18:37;;;;;;;13.32;8.65;;;;;;;34.03;42.80;100424.84;1714356;83;21055;-70
2022/06/09 07:21:05;;;;;;;13.00;9.35;;;;;;;33.99;43.86;100429.01;1708871;82;21100;-70
2022/06/09 07:23:35;;;;;;;19.23;9.78;;;;;;;34.21;43.97;100431.24;1736423;82;21120;-70
2022/06/09 07:26:04;;;;;;;18.67;10.30;;;;;;;34.38;44.46;100427.41;1721191;82;21005;-71
2022/06/09 07:28:32;;;;;;;16.73;9.83;;;;;;;34.38;43.71;100424.20;1713934;81;21156;-71
2022/06/09 07:31:02;;;;;;;21.15;12.50;;;;;;;34.46;44.55;100431.09;1719853;82;21049;-71
2022/06/09 07:33:34;;;;;;;21.60;12.60;;;;;;;34.93;45.53;100429.08;1721282;82;21049;-71
2022/06/09 07:36:04;;;;;;;22.77;13.13;;;;;;;35.31;45.01;100428.66;1729616;82;21076;-72
2022/06/09 07:38:31;;;;;;;20.72;13.15;;;;;;;35.34;43.88;100431.39;1721621;82;21044;-71
2022/06/09 07:40:58;;;;;;;18.75;11.68;;;;;;;35.38;44.08;100437.37;1730254;82;21469;-71
2022/06/09 07:43:25;;;;;;;15.23;10.40;;;;;;;35.46;43.93;100430.35;1722596;82;21085;-70
2022/06/09 07:45:52;;;;;;;17.55;10.25;;;;;;;35.51;42.14;100432.31;1711070;82;21049;-71
2022/06/09 07:48:20;;;;;;;20.17;11.83;;;;;;;35.52;42.38;100432.59;1718055;82;21572;-70
2022/06/09 07:50:51;;;;;;;19.70;12.00;;;;;;;35.37;42.41;100422.91;1729787;82;21112;-69
2022/06/09 07:53:20;;;;;;;19.98;12.85;;;;;;;35.50;42.86;100430.67;1712367;82;21077;-68
2022/06/09 07:55:48;;;;;;;21.05;12.03;;;;;;;35.45;43.25;100426.56;1734182;82;21071;-70
2022/06/09 07:58:17;;;;;;;21.50;12.25;;;;;;;35.57;42.45;100426.02;1728534;82;21076;-71
2022/06/09 08:00:46;;;;;;;22.20;11.40;;;;;;;35.64;42.46;100426.69;1736718;82;21046;-70
2022/06/09 08:03:24;;;;;;;13.22;9.55;;;;;;;35.71;43.27;100421.25;1712715;82;21065;-69
2022/06/09 08:05:51;;;;;;;16.12;9.30;;;;;;;35.76;41.62;100425.89;1725492;82;21646;-70
2022/06/09 08:08:19;;;;;;;15.58;8.30;;;;;;;35.95;41.33;100423.34;1723262;82;21663;-70
2022/06/09 08:10:48;;;;;;;19.57;10.50;;;;;;;36.08;39.38;100427.61;1708531;82;21580;-70
2022/06/09 08:13:19;;;;;;;25.57;12.58;;;;;;;35.91;41.88;100427.56;1737861;82;21072;-70
2022/06/09 08:15:46;;;;;;;20.00;11.70;;;;;;;35.97;41.43;100427.95;1729004;82;21029;-71
2022/06/09 08:18:14;;;;;;;21.17;11.90;;;;;;;35.85;41.28;100427.97;1735832;82;21085;-70
2022/06/09 08:20:44;;;;;;;18.25;11.35;;;;;;;36.10;40.69;100425.50;1725932;82;21089;-70
2022/06/09 08:23:22;;;;;;;16.73;11.43;;;;;;;36.12;40.37;100430.63;1724071;82;21053;-71
2022/06/09 08:25:53;;;;;;;18.75;11.25;;;;;;;36.20;40.41;100424.38;1721264;82;21587;-71
2022/06/09 08:28:23;;;;;;;12.60;8.35;;;;;;;36.43;40.82;100426.13;1727034;82;21041;-70
2022/06/09 08:30:54;;;;;;;17.17;9.48;;;;;;;36.32;37.66;100426.18;1722870;82;21073;-70
2022/06/09 08:33:24;;;;;;;20.15;11.38;;;;;;;36.35;37.27;100417.67;1721376;82;21072;-71
2022/06/09 08:35:53;;;;;;;19.17;11.83;;;;;;;36.53;38.07;100416.11;1717872;82;21048;-71
2022/06/09 08:38:21;;;;;;;16.75;11.33;;;;;;;36.19;39.90;100420.59;1720911;82;21037;-71
2022/06/09 08:41:17;;;;;;;19.42;10.72;;;;;;;36.78;40.37;100416.28;1711464;82;21095;-72
2022/06/09 08:43:54;;;;;;;17.52;10.95;;;;;;;36.13;39.20;100414.82;1727448;82;21135;-71
2022/06/09 08:46:44;;;;;;;20.68;11.55;;;;;;;36.39;38.31;100416.94;1723596;82;21073;-71
2022/06/09 08:50:09;;;;;;;21.52;11.00;;;;;;;36.29;38.69;100416.22;1726268;82;21068;-72
2022/06/09 08:53:15;;;;;;;19.30;11.63;;;;;;;36.07;38.78;100409.89;1723333;82;21018;-72
2022/06/09 08:55:53;;;;;;;17.85;11.65;;;;;;;36.03;38.92;100413.59;1723601;82;21619;-72
2022/06/09 08:58:40;;;;;;;19.50;11.63;;;;;;;36.58;38.08;100415.38;1725158;82;21117;-72
2022/06/09 09:01:14;;;;;;;20.77;10.70;;;;;;;36.82;38.16;100415.56;1736847;82;21568;-71
2022/06/09 09:03:58;;;;;;;16.65;9.80;;;;;;;36.62;37.26;100409.31;1715970;82;21576;-71
2022/06/09 09:06:47;;;;;;;17.50;9.15;;;;;;;36.60;36.22;100412.77;1729129;82;21611;-71
2022/06/09 09:09:22;;;;;;;20.43;9.90;;;;;;;36.61;36.85;100410.88;1717383;82;21549;-71
2022/06/09 09:12:19;;;;;;;15.70;9.00;;;;;;;36.60;37.28;100414.61;1735780;82;21044;-71
2022/06/09 09:14:57;;;;;;;15.32;8.65;;;;;;;36.18;37.13;100408.27;1717579;82;21021;-70
2022/06/09 09:18:09;;;;;;;13.50;8.93;;;;;;;36.04;36.79;100402.34;1717490;82;21143;-71
2022/06/09 09:21:03;;;;;;;15.70;8.83;;;;;;;36.38;37.21;100401.92;1734099;82;21041;-70
2022/06/09 09:23:41;;;;;;;17.73;9.20;;;;;;;36.43;35.08;100399.85;1726054;82;21521;-70
2022/06/09 09:39:52;;;;;;;16.07;8.95;;;;;;;36.12;36.57;100393.11;1759899;80;21122;-70
2022/06/09 09:42:30;;;;;;;14.20;8.75;;;;;;;36.12;36.74;100391.24;1777856;80;21066;-69
2022/06/09 09:45:18;;;;;;;15.18;8.90;;;;;;;36.10;38.43;100393.34;1756987;81;21019;-70
2022/06/09 09:47:57;;;;;;;17.73;9.40;;;;;;;36.12;34.45;100390.44;1773455;80;21016;-70
2022/06/09 09:51:00;;;;;;;17.65;8.63;;;;;;;36.64;33.60;100387.62;1779720;80;21079;-69
2022/06/09 09:53:38;;;;;;;15.60;9.10;;;;;;;37.14;34.01;100388.14;1763049;80;21067;-70
2022/06/09 09:56:20;;;;;;;16.57;8.65;;;;;;;37.04;34.24;100390.66;1769705;80;21558;-70
2022/06/09 09:58:53;;;;;;;15.88;9.63;;;;;;;36.71;34.33;100392.30;1764837;80;21113;-70
2022/06/09 10:01:26;;;;;;;19.35;10.05;;;;;;;36.74;35.77;100386.98;1775074;80;21065;-70
2022/06/09 10:09:48;;;;;;;15.00;8.88;;;;;;;36.73;36.30;100378.12;1769608;80;21074;-71
2022/06/09 10:12:28;;;;;;;15.83;8.65;;;;;;;36.71;34.21;100369.52;1775442;80;21016;-71
2022/06/09 10:15:07;;;;;;;12.28;7.92;;;;;;;36.38;35.88;100368.95;1784536;80;21468;-71
2022/06/09 10:17:58;;;;;;;12.45;7.37;;;;;;;36.92;35.77;100369.28;1769770;80;21016;-70
2022/06/09 10:20:43;;;;;;;17.00;7.15;;;;;;;37.17;33.78;100378.77;1746553;81;21048;-71
2022/06/09 10:23:16;;;;;;;11.78;7.00;;;;;;;37.10;34.66;100378.39;1725267;82;21051;-71
2022/06/09 10:26:06;;;;;;;14.38;7.10;;;;;;;36.79;34.41;100369.63;1752106;82;21036;-71
2022/06/09 10:29:00;;;;;;;11.95;7.67;;;;;;;36.56;34.52;100373.24;1754515;82;21031;-71
2022/06/09 10:31:53;;;;;;;15.05;6.95;;;;;;;36.52;35.37;100367.58;1738208;82;21096;-72
2022/06/09 10:35:06;;;;;;;11.57;6.28;;;;;;;36.84;34.00;100372.37;1720948;82;21007;-70
2022/06/09 10:37:52;;;;;;;11.38;6.75;;;;;;;36.45;34.60;100362.89;1733860;82;21052;-71
2022/06/09 10:40:31;;;;;;;13.48;6.80;;;;;;;36.03;34.67;100354.65;1729306;82;21056;-69
2022/06/09 10:43:30;;;;;;;11.97;7.15;;;;;;;36.15;34.59;100359.16;1725690;82;21031;-69
2022/06/09 10:46:36;;;;;;;16.80;7.60;;;;;;;36.55;35.38;100357.69;1728319;82;21133;-71
2022/06/09 10:55:24;;;;;;;11.20;6.33;;;;;;;37.85;32.41;100349.83;1727776;82;20996;-70
2022/06/09 10:58:26;;;;;;;13.35;6.20;;;;;;;37.88;32.13;100356.06;1731211;83;21016;-71
2022/06/09 11:00:54;;;;;;;11.60;6.22;;;;;;;37.93;32.81;100348.03;1681923;84;21558;-70
2022/06/09 11:03:40;;;;;;;11.22;6.12;;;;;;;38.15;32.68;100353.92;1727349;82;21086;-70
2022/06/09 11:06:46;;;;;;;12.93;6.10;;;;;;;38.26;33.58;100348.91;1725891;82;21060;-71
2022/06/09 11:09:52;;;;;;;8.83;5.40;;;;;;;38.32;32.51;100349.22;1734904;82;21068;-70
2022/06/09 11:12:43;;;;;;;11.60;5.70;;;;;;;37.98;33.80;100343.23;1726574;82;21070;-70
2022/06/09 11:15:25;;;;;;;9.03;5.30;;;;;;;38.43;34.10;100340.73;1684720;82;21560;-71
2022/06/09 11:18:23;;;;;;;9.98;5.40;;;;;;;38.72;33.15;100340.42;1687480;84;21012;-71
2022/06/09 11:21:11;;;;;;;8.83;5.08;;;;;;;38.65;33.10;100348.72;1681958;84;21048;-71
2022/06/09 11:23:54;;;;;;;10.23;4.83;;;;;;;38.41;31.29;100343.66;1679636;85;21049;-70
2022/06/09 11:26:52;;;;;;;8.20;4.78;;;;;;;38.87;33.66;100337.30;1671204;85;21502;-70
2022/06/09 11:29:42;;;;;;;8.58;4.08;;;;;;;39.08;31.98;100342.02;1737077;82;21567;-70
2022/06/09 11:32:31;;;;;;;7.83;4.75;;;;;;;38.61;31.66;100337.66;1732898;82;21076;-70
2022/06/09 11:35:48;;;;;;;7.35;4.15;;;;;;;38.41;32.92;100336.94;1737102;82;21064;-71
2022/06/09 11:38:47;;;;;;;10.98;4.28;;;;;;;38.18;32.22;100334.08;1736109;81;21021;-71
2022/06/09 11:41:43;;;;;;;8.03;4.60;;;;;;;37.75;31.21;100337.09;1721656;82;21630;-71
2022/06/09 11:44:38;;;;;;;10.75;3.90;;;;;;;38.64;32.06;100333.09;1723374;82;21034;-70
2022/06/09 11:47:16;;;;;;;7.47;4.00;;;;;;;38.71;31.59;100332.89;1720037;82;21507;-71
2022/06/09 11:49:54;;;;;;;7.65;3.75;;;;;;;38.14;32.17;100334.81;1716978;81;21542;-71
2022/06/09 11:52:29;;;;;;;8.90;3.85;;;;;;;38.08;32.55;100337.48;1704410;82;21039;-71
2022/06/09 11:55:02;;;;;;;7.22;3.50;;;;;;;37.56;32.35;100332.58;1718686;82;20997;-71
2022/06/09 11:57:44;;;;;;;11.97;4.00;;;;;;;38.01;32.34;100332.80;1724505;82;20989;-71
2022/06/09 12:00:32;;;;;;;5.12;3.62;;;;;;;38.00;31.58;100333.05;1720697;81;21132;-71
2022/06/09 12:03:10;;;;;;;8.28;3.80;;;;;;;38.29;31.75;100325.55;1734584;82;20992;-71
2022/06/09 12:06:02;;;;;;;8.15;3.75;;;;;;;38.43;31.26;100330.77;1733920;82;21050;-72
2022/06/09 12:08:39;;;;;;;8.08;3.80;;;;;;;38.73;30.24;100328.06;1727611;82;21517;-71
2022/06/09 12:11:18;;;;;;;6.70;3.65;;;;;;;39.03;31.28;100327.45;1723873;82;21010;-70
2022/06/09 12:14:09;;;;;;;8.60;3.60;;;;;;;39.33;31.50;100324.61;1725930;82;20974;-70
2022/06/09 12:16:41;;;;;;;7.70;3.50;;;;;;;39.22;32.31;100332.39;1726907;82;21710;-70
2022/06/09 12:19:20;;;;;;;4.42;3.30;;;;;;;39.38;30.79;100331.38;1743380;82;21540;-70
2022/06/09 12:21:52;;;;;;;6.00;3.45;;;;;;;39.27;31.46;100329.70;1737623;82;21531;-70
2022/06/09 12:26:20;;;;;;;8.48;3.20;;;;;;;39.07;29.42;100318.30;1821061;78;26982;-73